Terminal Aerodrome Forecast
Issued by NWS Twin Cities, MN

Home | Current Version | Previous Version | Graphics & Text | Print | Product List | Glossary On
Versions: 1 2 3 4 5 6 7 8 9 10 11 12 13 14 15 16 17 18 19 20 21 22 23 24 25 26 27 28
000
FTUS43 KMPX 201100
TAFMSP
TAF
KMSP 201120Z 2012/2118 16007KT 5SM BR BKN013 OVC025
      TEMPO 2012/2014 SCT013 OVC020
     FM201600 16008KT 6SM BR OVC015
     FM202000 16008KT P6SM OVC014
     FM210300 15007KT 5SM BR OVC008
     FM211500 15007KT 6SM BR SCT008 OVC015=

USA.gov is the U.S. government's official web portal to all federal, state and local government web resources and services.